sensor_id;sensor_type;location;lat;lon;timestamp;P1;durP1;ratioP1;P2;durP2;ratioP2
3849;SDS011;1940;51.052;13.678;2023-12-20T00:01:34;5.53;;;3.70;;
3849;SDS011;1940;51.052;13.678;2023-12-20T00:04:00;4.93;;;3.60;;
3849;SDS011;1940;51.052;13.678;2023-12-20T00:06:26;5.57;;;3.20;;
3849;SDS011;1940;51.052;13.678;2023-12-20T00:08:52;5.10;;;3.57;;
3849;SDS011;1940;51.052;13.678;2023-12-20T00:11:18;4.83;;;3.50;;
3849;SDS011;1940;51.052;13.678;2023-12-20T00:13:44;3.67;;;2.97;;
3849;SDS011;1940;51.052;13.678;2023-12-20T00:16:09;5.00;;;3.13;;
3849;SDS011;1940;51.052;13.678;2023-12-20T00:18:34;5.77;;;3.03;;
3849;SDS011;1940;51.052;13.678;2023-12-20T00:21:00;7.83;;;2.80;;
3849;SDS011;1940;51.052;13.678;2023-12-20T00:23:25;3.60;;;2.37;;
3849;SDS011;1940;51.052;13.678;2023-12-20T00:25:51;4.40;;;2.80;;
3849;SDS011;1940;51.052;13.678;2023-12-20T00:28:16;3.93;;;2.40;;
3849;SDS011;1940;51.052;13.678;2023-12-20T00:30:42;3.37;;;2.57;;
3849;SDS011;1940;51.052;13.678;2023-12-20T00:33:07;2.83;;;2.27;;
3849;SDS011;1940;51.052;13.678;2023-12-20T00:35:33;3.90;;;2.60;;
3849;SDS011;1940;51.052;13.678;2023-12-20T00:37:58;3.47;;;2.20;;
3849;SDS011;1940;51.052;13.678;2023-12-20T00:40:24;3.43;;;2.20;;
3849;SDS011;1940;51.052;13.678;2023-12-20T00:42:49;3.83;;;2.40;;
3849;SDS011;1940;51.052;13.678;2023-12-20T00:45:15;4.47;;;2.90;;
3849;SDS011;1940;51.052;13.678;2023-12-20T00:47:40;4.17;;;2.67;;
3849;SDS011;1940;51.052;13.678;2023-12-20T00:50:06;2.30;;;2.00;;
3849;SDS011;1940;51.052;13.678;2023-12-20T00:52:32;6.40;;;2.07;;
3849;SDS011;1940;51.052;13.678;2023-12-20T00:54:57;2.50;;;2.03;;
3849;SDS011;1940;51.052;13.678;2023-12-20T00:57:23;3.93;;;2.47;;
3849;SDS011;1940;51.052;13.678;2023-12-20T00:59:48;2.83;;;2.20;;
3849;SDS011;1940;51.052;13.678;2023-12-20T01:02:14;2.83;;;2.10;;
3849;SDS011;1940;51.052;13.678;2023-12-20T01:04:39;3.03;;;2.17;;
3849;SDS011;1940;51.052;13.678;2023-12-20T01:07:05;2.60;;;2.10;;
3849;SDS011;1940;51.052;13.678;2023-12-20T01:09:30;2.10;;;1.63;;
3849;SDS011;1940;51.052;13.678;2023-12-20T01:11:56;2.30;;;2.10;;
3849;SDS011;1940;51.052;13.678;2023-12-20T01:14:21;2.87;;;2.13;;
3849;SDS011;1940;51.052;13.678;2023-12-20T01:16:47;2.60;;;2.07;;
3849;SDS011;1940;51.052;13.678;2023-12-20T01:19:12;2.57;;;1.90;;
3849;SDS011;1940;51.052;13.678;2023-12-20T01:21:39;3.00;;;2.03;;
3849;SDS011;1940;51.052;13.678;2023-12-20T01:24:05;2.93;;;2.03;;
3849;SDS011;1940;51.052;13.678;2023-12-20T01:26:30;3.27;;;2.03;;
3849;SDS011;1940;51.052;13.678;2023-12-20T01:28:55;3.03;;;2.00;;
3849;SDS011;1940;51.052;13.678;2023-12-20T01:31:21;3.17;;;1.93;;
3849;SDS011;1940;51.052;13.678;2023-12-20T01:33:46;2.90;;;1.67;;
3849;SDS011;1940;51.052;13.678;2023-12-20T01:36:12;2.90;;;2.03;;
3849;SDS011;1940;51.052;13.678;2023-12-20T01:38:37;2.23;;;1.80;;
3849;SDS011;1940;51.052;13.678;2023-12-20T01:41:03;1.80;;;1.63;;
3849;SDS011;1940;51.052;13.678;2023-12-20T01:43:29;2.87;;;1.90;;
3849;SDS011;1940;51.052;13.678;2023-12-20T01:45:55;2.07;;;1.80;;
3849;SDS011;1940;51.052;13.678;2023-12-20T01:48:22;2.50;;;1.80;;
3849;SDS011;1940;51.052;13.678;2023-12-20T01:50:49;2.30;;;1.77;;
3849;SDS011;1940;51.052;13.678;2023-12-20T01:53:16;2.30;;;1.83;;
3849;SDS011;1940;51.052;13.678;2023-12-20T01:55:43;2.30;;;1.77;;
3849;SDS011;1940;51.052;13.678;2023-12-20T01:58:13;1.97;;;1.70;;
3849;SDS011;1940;51.052;13.678;2023-12-20T02:00:40;1.50;;;1.40;;
3849;SDS011;1940;51.052;13.678;2023-12-20T02:03:06;2.00;;;1.53;;
3849;SDS011;1940;51.052;13.678;2023-12-20T02:05:31;1.60;;;1.37;;
3849;SDS011;1940;51.052;13.678;2023-12-20T02:07:59;1.97;;;1.47;;
3849;SDS011;1940;51.052;13.678;2023-12-20T02:10:25;1.40;;;1.10;;
3849;SDS011;1940;51.052;13.678;2023-12-20T02:12:51;1.60;;;1.40;;
3849;SDS011;1940;51.052;13.678;2023-12-20T02:15:16;1.70;;;1.30;;
3849;SDS011;1940;51.052;13.678;2023-12-20T02:17:42;1.67;;;1.27;;
3849;SDS011;1940;51.052;13.678;2023-12-20T02:20:08;1.23;;;1.10;;
3849;SDS011;1940;51.052;13.678;2023-12-20T02:22:34;1.50;;;1.40;;
3849;SDS011;1940;51.052;13.678;2023-12-20T02:25:00;1.80;;;1.40;;
3849;SDS011;1940;51.052;13.678;2023-12-20T02:27:25;1.93;;;1.30;;
3849;SDS011;1940;51.052;13.678;2023-12-20T02:29:52;2.30;;;1.50;;
3849;SDS011;1940;51.052;13.678;2023-12-20T02:32:17;1.50;;;1.27;;
3849;SDS011;1940;51.052;13.678;2023-12-20T02:34:44;1.27;;;1.13;;
3849;SDS011;1940;51.052;13.678;2023-12-20T02:37:09;1.70;;;1.33;;
3849;SDS011;1940;51.052;13.678;2023-12-20T02:39:35;1.30;;;1.00;;
3849;SDS011;1940;51.052;13.678;2023-12-20T02:42:00;1.53;;;1.20;;
3849;SDS011;1940;51.052;13.678;2023-12-20T02:44:26;1.47;;;1.37;;
3849;SDS011;1940;51.052;13.678;2023-12-20T02:46:51;1.70;;;1.33;;
3849;SDS011;1940;51.052;13.678;2023-12-20T02:49:17;1.30;;;1.20;;
3849;SDS011;1940;51.052;13.678;2023-12-20T02:51:43;1.13;;;1.03;;
3849;SDS011;1940;51.052;13.678;2023-12-20T02:54:08;1.70;;;1.37;;
3849;SDS011;1940;51.052;13.678;2023-12-20T02:56:34;1.67;;;1.30;;
3849;SDS011;1940;51.052;13.678;2023-12-20T02:58:59;1.80;;;1.47;;
3849;SDS011;1940;51.052;13.678;2023-12-20T03:01:26;1.17;;;1.07;;
3849;SDS011;1940;51.052;13.678;2023-12-20T03:03:52;1.20;;;1.10;;
3849;SDS011;1940;51.052;13.678;2023-12-20T03:06:18;1.20;;;1.10;;
3849;SDS011;1940;51.052;13.678;2023-12-20T03:08:44;1.20;;;1.03;;
3849;SDS011;1940;51.052;13.678;2023-12-20T03:11:09;1.23;;;1.13;;
3849;SDS011;1940;51.052;13.678;2023-12-20T03:13:35;1.40;;;1.23;;
3849;SDS011;1940;51.052;13.678;2023-12-20T03:16:00;1.37;;;1.10;;
3849;SDS011;1940;51.052;13.678;2023-12-20T03:18:26;1.67;;;1.40;;
3849;SDS011;1940;51.052;13.678;2023-12-20T03:20:53;1.53;;;1.33;;
3849;SDS011;1940;51.052;13.678;2023-12-20T03:23:18;1.37;;;1.00;;
3849;SDS011;1940;51.052;13.678;2023-12-20T03:25:44;1.10;;;1.00;;
3849;SDS011;1940;51.052;13.678;2023-12-20T03:28:09;1.20;;;1.10;;
3849;SDS011;1940;51.052;13.678;2023-12-20T03:30:35;1.20;;;1.10;;
3849;SDS011;1940;51.052;13.678;2023-12-20T03:33:00;1.30;;;1.20;;
3849;SDS011;1940;51.052;13.678;2023-12-20T03:35:26;1.40;;;1.20;;
3849;SDS011;1940;51.052;13.678;2023-12-20T03:37:51;1.13;;;1.00;;
3849;SDS011;1940;51.052;13.678;2023-12-20T03:40:17;1.20;;;1.10;;
3849;SDS011;1940;51.052;13.678;2023-12-20T03:42:42;1.40;;;1.20;;
3849;SDS011;1940;51.052;13.678;2023-12-20T03:45:08;2.00;;;1.10;;
3849;SDS011;1940;51.052;13.678;2023-12-20T03:47:35;1.20;;;1.00;;
3849;SDS011;1940;51.052;13.678;2023-12-20T03:50:00;1.80;;;1.40;;
3849;SDS011;1940;51.052;13.678;2023-12-20T03:52:25;1.10;;;1.00;;
3849;SDS011;1940;51.052;13.678;2023-12-20T03:54:51;2.43;;;1.30;;
3849;SDS011;1940;51.052;13.678;2023-12-20T03:57:16;1.13;;;1.03;;
3849;SDS011;1940;51.052;13.678;2023-12-20T03:59:42;1.23;;;1.13;;
3849;SDS011;1940;51.052;13.678;2023-12-20T04:02:07;1.13;;;1.03;;
3849;SDS011;1940;51.052;13.678;2023-12-20T04:04:33;1.83;;;1.20;;
3849;SDS011;1940;51.052;13.678;2023-12-20T04:06:58;1.20;;;1.10;;
3849;SDS011;1940;51.052;13.678;2023-12-20T04:09:24;1.40;;;1.10;;
3849;SDS011;1940;51.052;13.678;2023-12-20T04:11:49;2.40;;;1.10;;
3849;SDS011;1940;51.052;13.678;2023-12-20T04:14:15;1.53;;;1.30;;
3849;SDS011;1940;51.052;13.678;2023-12-20T04:16:40;1.00;;;0.90;;
3849;SDS011;1940;51.052;13.678;2023-12-20T04:19:05;1.20;;;1.10;;
3849;SDS011;1940;51.052;13.678;2023-12-20T04:21:31;1.70;;;1.27;;
3849;SDS011;1940;51.052;13.678;2023-12-20T04:23:56;1.30;;;1.20;;
3849;SDS011;1940;51.052;13.678;2023-12-20T04:26:22;1.53;;;1.30;;
3849;SDS011;1940;51.052;13.678;2023-12-20T04:28:47;1.77;;;1.13;;
3849;SDS011;1940;51.052;13.678;2023-12-20T04:31:13;1.40;;;1.20;;
3849;SDS011;1940;51.052;13.678;2023-12-20T04:33:38;1.10;;;0.90;;
3849;SDS011;1940;51.052;13.678;2023-12-20T04:36:04;1.57;;;1.30;;
3849;SDS011;1940;51.052;13.678;2023-12-20T04:38:29;1.17;;;1.03;;
3849;SDS011;1940;51.052;13.678;2023-12-20T04:40:55;1.73;;;1.40;;
3849;SDS011;1940;51.052;13.678;2023-12-20T04:43:21;1.37;;;1.27;;
3849;SDS011;1940;51.052;13.678;2023-12-20T04:45:46;1.63;;;1.20;;
3849;SDS011;1940;51.052;13.678;2023-12-20T04:48:12;1.23;;;1.13;;
3849;SDS011;1940;51.052;13.678;2023-12-20T04:50:37;1.60;;;1.40;;
3849;SDS011;1940;51.052;13.678;2023-12-20T04:53:03;1.30;;;1.20;;
3849;SDS011;1940;51.052;13.678;2023-12-20T04:55:28;1.40;;;1.20;;
3849;SDS011;1940;51.052;13.678;2023-12-20T04:57:54;1.30;;;1.10;;
3849;SDS011;1940;51.052;13.678;2023-12-20T05:00:19;1.50;;;1.30;;
3849;SDS011;1940;51.052;13.678;2023-12-20T05:02:45;1.43;;;1.33;;
3849;SDS011;1940;51.052;13.678;2023-12-20T05:05:10;1.57;;;1.20;;
3849;SDS011;1940;51.052;13.678;2023-12-20T05:07:36;1.50;;;1.30;;
3849;SDS011;1940;51.052;13.678;2023-12-20T05:10:02;1.10;;;1.00;;
3849;SDS011;1940;51.052;13.678;2023-12-20T05:12:29;1.30;;;1.20;;
3849;SDS011;1940;51.052;13.678;2023-12-20T05:14:55;1.30;;;1.20;;
3849;SDS011;1940;51.052;13.678;2023-12-20T05:17:20;1.30;;;1.10;;
3849;SDS011;1940;51.052;13.678;2023-12-20T05:19:46;1.50;;;1.10;;
3849;SDS011;1940;51.052;13.678;2023-12-20T05:22:11;1.70;;;1.27;;
3849;SDS011;1940;51.052;13.678;2023-12-20T05:24:37;2.60;;;1.30;;
3849;SDS011;1940;51.052;13.678;2023-12-20T05:27:02;1.30;;;1.07;;
3849;SDS011;1940;51.052;13.678;2023-12-20T05:29:28;1.30;;;1.20;;
3849;SDS011;1940;51.052;13.678;2023-12-20T05:31:53;1.30;;;1.20;;
3849;SDS011;1940;51.052;13.678;2023-12-20T05:34:19;1.40;;;1.30;;
3849;SDS011;1940;51.052;13.678;2023-12-20T05:36:45;2.60;;;1.10;;
3849;SDS011;1940;51.052;13.678;2023-12-20T05:39:10;1.60;;;1.17;;
3849;SDS011;1940;51.052;13.678;2023-12-20T05:41:36;1.40;;;1.30;;
3849;SDS011;1940;51.052;13.678;2023-12-20T05:44:02;1.47;;;1.20;;
3849;SDS011;1940;51.052;13.678;2023-12-20T05:46:27;1.33;;;1.20;;
3849;SDS011;1940;51.052;13.678;2023-12-20T05:48:53;4.00;;;1.17;;
3849;SDS011;1940;51.052;13.678;2023-12-20T05:51:18;1.23;;;1.13;;
3849;SDS011;1940;51.052;13.678;2023-12-20T05:53:44;3.20;;;2.00;;
3849;SDS011;1940;51.052;13.678;2023-12-20T05:56:10;3.60;;;1.47;;
3849;SDS011;1940;51.052;13.678;2023-12-20T05:58:36;1.40;;;1.30;;
3849;SDS011;1940;51.052;13.678;2023-12-20T06:01:04;1.10;;;1.00;;
3849;SDS011;1940;51.052;13.678;2023-12-20T06:03:30;1.37;;;1.20;;
3849;SDS011;1940;51.052;13.678;2023-12-20T06:05:56;1.33;;;1.23;;
3849;SDS011;1940;51.052;13.678;2023-12-20T06:08:21;1.37;;;1.13;;
3849;SDS011;1940;51.052;13.678;2023-12-20T06:10:47;1.20;;;1.10;;
3849;SDS011;1940;51.052;13.678;2023-12-20T06:13:12;1.40;;;1.17;;
3849;SDS011;1940;51.052;13.678;2023-12-20T06:15:39;1.53;;;1.30;;
3849;SDS011;1940;51.052;13.678;2023-12-20T06:18:05;1.93;;;1.53;;
3849;SDS011;1940;51.052;13.678;2023-12-20T06:20:30;1.80;;;1.50;;
3849;SDS011;1940;51.052;13.678;2023-12-20T06:22:57;2.33;;;1.60;;
3849;SDS011;1940;51.052;13.678;2023-12-20T06:25:22;1.77;;;1.40;;
3849;SDS011;1940;51.052;13.678;2023-12-20T06:27:48;2.20;;;1.60;;
3849;SDS011;1940;51.052;13.678;2023-12-20T06:30:13;1.70;;;1.30;;
3849;SDS011;1940;51.052;13.678;2023-12-20T06:32:40;1.90;;;1.57;;
3849;SDS011;1940;51.052;13.678;2023-12-20T06:35:07;1.67;;;1.50;;
3849;SDS011;1940;51.052;13.678;2023-12-20T06:37:33;1.97;;;1.77;;
3849;SDS011;1940;51.052;13.678;2023-12-20T06:39:59;1.73;;;1.60;;
3849;SDS011;1940;51.052;13.678;2023-12-20T06:42:24;2.00;;;1.67;;
3849;SDS011;1940;51.052;13.678;2023-12-20T06:44:50;2.37;;;1.80;;
3849;SDS011;1940;51.052;13.678;2023-12-20T06:47:15;1.90;;;1.57;;
3849;SDS011;1940;51.052;13.678;2023-12-20T06:49:41;3.27;;;1.90;;
3849;SDS011;1940;51.052;13.678;2023-12-20T06:52:06;2.33;;;1.80;;
3849;SDS011;1940;51.052;13.678;2023-12-20T06:54:32;2.10;;;1.83;;
3849;SDS011;1940;51.052;13.678;2023-12-20T06:56:59;2.00;;;1.70;;
3849;SDS011;1940;51.052;13.678;2023-12-20T06:59:25;2.57;;;1.87;;
3849;SDS011;1940;51.052;13.678;2023-12-20T07:01:51;2.00;;;1.60;;
3849;SDS011;1940;51.052;13.678;2023-12-20T07:04:17;3.27;;;2.03;;
3849;SDS011;1940;51.052;13.678;2023-12-20T07:06:47;2.30;;;1.93;;
3849;SDS011;1940;51.052;13.678;2023-12-20T07:09:13;2.60;;;1.97;;
3849;SDS011;1940;51.052;13.678;2023-12-20T07:11:39;2.70;;;2.20;;
3849;SDS011;1940;51.052;13.678;2023-12-20T07:14:05;2.43;;;2.00;;
3849;SDS011;1940;51.052;13.678;2023-12-20T07:16:30;3.83;;;2.00;;
3849;SDS011;1940;51.052;13.678;2023-12-20T07:18:56;3.17;;;2.47;;
3849;SDS011;1940;51.052;13.678;2023-12-20T07:21:22;2.80;;;2.47;;
3849;SDS011;1940;51.052;13.678;2023-12-20T07:23:47;2.53;;;2.30;;
3849;SDS011;1940;51.052;13.678;2023-12-20T07:26:13;3.00;;;2.20;;
3849;SDS011;1940;51.052;13.678;2023-12-20T07:28:38;3.07;;;2.30;;
3849;SDS011;1940;51.052;13.678;2023-12-20T07:31:04;3.63;;;2.67;;
3849;SDS011;1940;51.052;13.678;2023-12-20T07:33:29;4.43;;;2.63;;
3849;SDS011;1940;51.052;13.678;2023-12-20T07:35:55;4.20;;;2.80;;
3849;SDS011;1940;51.052;13.678;2023-12-20T07:38:20;4.20;;;2.67;;
3849;SDS011;1940;51.052;13.678;2023-12-20T07:40:45;2.63;;;2.10;;
3849;SDS011;1940;51.052;13.678;2023-12-20T07:43:11;3.67;;;2.30;;
3849;SDS011;1940;51.052;13.678;2023-12-20T07:45:36;4.07;;;2.80;;
3849;SDS011;1940;51.052;13.678;2023-12-20T07:48:03;3.90;;;3.00;;
3849;SDS011;1940;51.052;13.678;2023-12-20T07:50:29;4.40;;;2.57;;
3849;SDS011;1940;51.052;13.678;2023-12-20T07:52:55;2.80;;;2.33;;
3849;SDS011;1940;51.052;13.678;2023-12-20T07:55:20;3.70;;;2.80;;
3849;SDS011;1940;51.052;13.678;2023-12-20T07:57:46;4.60;;;2.93;;
3849;SDS011;1940;51.052;13.678;2023-12-20T08:00:11;5.53;;;3.17;;
3849;SDS011;1940;51.052;13.678;2023-12-20T08:02:37;4.10;;;2.83;;
3849;SDS011;1940;51.052;13.678;2023-12-20T08:05:03;6.13;;;3.03;;
3849;SDS011;1940;51.052;13.678;2023-12-20T08:07:28;3.40;;;2.43;;
3849;SDS011;1940;51.052;13.678;2023-12-20T08:09:54;4.30;;;2.73;;
3849;SDS011;1940;51.052;13.678;2023-12-20T08:12:21;4.37;;;2.43;;
3849;SDS011;1940;51.052;13.678;2023-12-20T08:14:47;5.30;;;3.43;;
3849;SDS011;1940;51.052;13.678;2023-12-20T08:17:13;4.23;;;2.60;;
3849;SDS011;1940;51.052;13.678;2023-12-20T08:19:41;4.50;;;1.90;;
3849;SDS011;1940;51.052;13.678;2023-12-20T08:22:06;2.73;;;1.93;;
3849;SDS011;1940;51.052;13.678;2023-12-20T08:24:32;2.73;;;2.00;;
3849;SDS011;1940;51.052;13.678;2023-12-20T08:26:57;2.50;;;2.00;;
3849;SDS011;1940;51.052;13.678;2023-12-20T08:29:22;3.70;;;2.13;;
3849;SDS011;1940;51.052;13.678;2023-12-20T08:31:51;3.33;;;2.20;;
3849;SDS011;1940;51.052;13.678;2023-12-20T08:34:18;3.77;;;2.10;;
3849;SDS011;1940;51.052;13.678;2023-12-20T08:36:44;2.73;;;1.90;;
3849;SDS011;1940;51.052;13.678;2023-12-20T08:39:09;3.63;;;2.20;;
3849;SDS011;1940;51.052;13.678;2023-12-20T08:41:35;3.00;;;1.50;;
3849;SDS011;1940;51.052;13.678;2023-12-20T08:44:00;2.10;;;1.60;;
3849;SDS011;1940;51.052;13.678;2023-12-20T08:46:26;2.57;;;1.57;;
3849;SDS011;1940;51.052;13.678;2023-12-20T08:48:51;3.03;;;1.80;;
3849;SDS011;1940;51.052;13.678;2023-12-20T08:51:17;6.33;;;1.57;;
3849;SDS011;1940;51.052;13.678;2023-12-20T08:53:42;6.57;;;1.57;;
3849;SDS011;1940;51.052;13.678;2023-12-20T08:56:10;1.73;;;1.30;;
3849;SDS011;1940;51.052;13.678;2023-12-20T08:58:35;5.90;;;1.40;;
3849;SDS011;1940;51.052;13.678;2023-12-20T09:01:01;2.43;;;1.33;;
3849;SDS011;1940;51.052;13.678;2023-12-20T09:03:26;2.90;;;1.50;;
3849;SDS011;1940;51.052;13.678;2023-12-20T09:05:52;6.00;;;1.40;;
3849;SDS011;1940;51.052;13.678;2023-12-20T09:08:17;2.63;;;1.20;;
3849;SDS011;1940;51.052;13.678;2023-12-20T09:10:43;2.33;;;1.27;;
3849;SDS011;1940;51.052;13.678;2023-12-20T09:13:09;5.60;;;1.27;;
3849;SDS011;1940;51.052;13.678;2023-12-20T09:15:34;1.40;;;1.00;;
3849;SDS011;1940;51.052;13.678;2023-12-20T09:18:00;3.63;;;1.37;;
3849;SDS011;1940;51.052;13.678;2023-12-20T09:20:26;2.80;;;1.30;;
3849;SDS011;1940;51.052;13.678;2023-12-20T09:22:52;3.47;;;1.20;;
3849;SDS011;1940;51.052;13.678;2023-12-20T09:25:18;2.13;;;1.17;;
3849;SDS011;1940;51.052;13.678;2023-12-20T09:27:43;3.00;;;1.10;;
3849;SDS011;1940;51.052;13.678;2023-12-20T09:30:09;3.73;;;1.20;;
3849;SDS011;1940;51.052;13.678;2023-12-20T09:32:34;4.03;;;1.40;;
3849;SDS011;1940;51.052;13.678;2023-12-20T09:35:00;1.90;;;1.30;;
3849;SDS011;1940;51.052;13.678;2023-12-20T09:37:26;1.97;;;1.50;;
3849;SDS011;1940;51.052;13.678;2023-12-20T09:39:52;3.20;;;1.53;;
3849;SDS011;1940;51.052;13.678;2023-12-20T09:42:21;2.90;;;1.90;;
3849;SDS011;1940;51.052;13.678;2023-12-20T09:44:59;3.80;;;1.53;;
3849;SDS011;1940;51.052;13.678;2023-12-20T09:47:28;4.80;;;1.60;;
3849;SDS011;1940;51.052;13.678;2023-12-20T09:49:54;3.73;;;1.77;;
3849;SDS011;1940;51.052;13.678;2023-12-20T09:52:20;1.90;;;1.40;;
3849;SDS011;1940;51.052;13.678;2023-12-20T09:54:48;2.20;;;1.40;;
3849;SDS011;1940;51.052;13.678;2023-12-20T09:57:17;2.60;;;1.50;;
3849;SDS011;1940;51.052;13.678;2023-12-20T09:59:42;2.00;;;1.33;;
3849;SDS011;1940;51.052;13.678;2023-12-20T10:02:09;3.47;;;1.40;;
3849;SDS011;1940;51.052;13.678;2023-12-20T10:04:39;1.70;;;1.50;;
3849;SDS011;1940;51.052;13.678;2023-12-20T10:07:11;2.93;;;1.50;;
3849;SDS011;1940;51.052;13.678;2023-12-20T10:09:37;1.50;;;1.30;;
3849;SDS011;1940;51.052;13.678;2023-12-20T10:12:03;3.10;;;1.87;;
3849;SDS011;1940;51.052;13.678;2023-12-20T10:14:30;3.47;;;1.37;;
3849;SDS011;1940;51.052;13.678;2023-12-20T10:17:05;6.03;;;1.60;;
3849;SDS011;1940;51.052;13.678;2023-12-20T10:19:34;2.27;;;1.47;;
3849;SDS011;1940;51.052;13.678;2023-12-20T10:22:00;4.70;;;1.60;;
3849;SDS011;1940;51.052;13.678;2023-12-20T10:24:28;3.40;;;1.40;;
3849;SDS011;1940;51.052;13.678;2023-12-20T10:27:01;3.97;;;1.43;;
3849;SDS011;1940;51.052;13.678;2023-12-20T10:29:33;1.80;;;1.37;;
3849;SDS011;1940;51.052;13.678;2023-12-20T10:32:00;1.90;;;1.40;;
3849;SDS011;1940;51.052;13.678;2023-12-20T10:34:52;1.73;;;1.37;;
3849;SDS011;1940;51.052;13.678;2023-12-20T10:37:18;4.87;;;1.53;;
3849;SDS011;1940;51.052;13.678;2023-12-20T10:39:44;4.43;;;1.53;;
3849;SDS011;1940;51.052;13.678;2023-12-20T10:42:16;2.93;;;1.50;;
3849;SDS011;1940;51.052;13.678;2023-12-20T10:44:42;2.43;;;1.77;;
3849;SDS011;1940;51.052;13.678;2023-12-20T10:47:08;3.17;;;1.43;;
3849;SDS011;1940;51.052;13.678;2023-12-20T10:49:36;2.10;;;1.70;;
3849;SDS011;1940;51.052;13.678;2023-12-20T10:52:04;1.97;;;1.33;;
3849;SDS011;1940;51.052;13.678;2023-12-20T10:54:31;3.60;;;1.60;;
3849;SDS011;1940;51.052;13.678;2023-12-20T10:56:57;3.33;;;1.70;;
3849;SDS011;1940;51.052;13.678;2023-12-20T10:59:23;2.07;;;1.60;;
3849;SDS011;1940;51.052;13.678;2023-12-20T11:01:50;2.80;;;1.40;;
3849;SDS011;1940;51.052;13.678;2023-12-20T11:04:22;2.90;;;1.63;;
3849;SDS011;1940;51.052;13.678;2023-12-20T11:07:07;2.83;;;1.40;;
3849;SDS011;1940;51.052;13.678;2023-12-20T11:09:43;2.13;;;1.50;;
3849;SDS011;1940;51.052;13.678;2023-12-20T11:12:35;1.70;;;1.20;;
3849;SDS011;1940;51.052;13.678;2023-12-20T11:15:08;3.40;;;1.57;;
3849;SDS011;1940;51.052;13.678;2023-12-20T11:17:35;3.90;;;1.60;;
3849;SDS011;1940;51.052;13.678;2023-12-20T11:20:06;5.97;;;2.43;;
3849;SDS011;1940;51.052;13.678;2023-12-20T11:22:35;2.90;;;1.67;;
3849;SDS011;1940;51.052;13.678;2023-12-20T11:25:03;7.70;;;1.90;;
3849;SDS011;1940;51.052;13.678;2023-12-20T11:27:31;3.70;;;1.87;;
3849;SDS011;1940;51.052;13.678;2023-12-20T11:29:57;4.77;;;2.13;;
3849;SDS011;1940;51.052;13.678;2023-12-20T11:34:58;1.87;;;1.60;;
3849;SDS011;1940;51.052;13.678;2023-12-20T11:37:32;7.23;;;2.20;;
3849;SDS011;1940;51.052;13.678;2023-12-20T11:40:02;4.87;;;2.20;;
3849;SDS011;1940;51.052;13.678;2023-12-20T11:42:33;3.70;;;1.80;;
3849;SDS011;1940;51.052;13.678;2023-12-20T11:45:02;4.87;;;2.10;;
3849;SDS011;1940;51.052;13.678;2023-12-20T11:47:29;2.30;;;1.60;;
3849;SDS011;1940;51.052;13.678;2023-12-20T11:49:56;8.43;;;1.70;;
3849;SDS011;1940;51.052;13.678;2023-12-20T11:52:22;4.50;;;1.80;;
3849;SDS011;1940;51.052;13.678;2023-12-20T11:54:47;1.60;;;1.30;;
3849;SDS011;1940;51.052;13.678;2023-12-20T11:57:13;3.27;;;1.47;;
3849;SDS011;1940;51.052;13.678;2023-12-20T11:59:38;4.00;;;1.73;;
3849;SDS011;1940;51.052;13.678;2023-12-20T12:02:04;5.20;;;1.50;;
3849;SDS011;1940;51.052;13.678;2023-12-20T12:04:30;2.27;;;1.60;;
3849;SDS011;1940;51.052;13.678;2023-12-20T12:06:56;2.07;;;1.53;;
3849;SDS011;1940;51.052;13.678;2023-12-20T12:09:21;2.60;;;2.07;;
3849;SDS011;1940;51.052;13.678;2023-12-20T12:11:47;4.00;;;1.63;;
3849;SDS011;1940;51.052;13.678;2023-12-20T12:14:13;4.73;;;1.60;;
3849;SDS011;1940;51.052;13.678;2023-12-20T12:16:41;4.23;;;1.90;;
3849;SDS011;1940;51.052;13.678;2023-12-20T12:19:07;3.60;;;1.63;;
3849;SDS011;1940;51.052;13.678;2023-12-20T12:21:44;3.33;;;1.70;;
3849;SDS011;1940;51.052;13.678;2023-12-20T12:24:10;4.33;;;1.77;;
3849;SDS011;1940;51.052;13.678;2023-12-20T12:26:35;7.50;;;2.17;;
3849;SDS011;1940;51.052;13.678;2023-12-20T12:29:01;5.20;;;1.87;;
3849;SDS011;1940;51.052;13.678;2023-12-20T12:31:26;2.77;;;1.80;;
3849;SDS011;1940;51.052;13.678;2023-12-20T12:33:52;2.43;;;1.37;;
3849;SDS011;1940;51.052;13.678;2023-12-20T12:36:17;2.73;;;1.77;;
3849;SDS011;1940;51.052;13.678;2023-12-20T12:38:43;3.80;;;1.60;;
3849;SDS011;1940;51.052;13.678;2023-12-20T12:41:09;2.63;;;1.90;;
3849;SDS011;1940;51.052;13.678;2023-12-20T12:43:37;7.67;;;2.30;;
3849;SDS011;1940;51.052;13.678;2023-12-20T12:46:02;4.70;;;1.80;;
3849;SDS011;1940;51.052;13.678;2023-12-20T12:48:28;1.57;;;1.40;;
3849;SDS011;1940;51.052;13.678;2023-12-20T12:50:54;3.10;;;1.60;;
3849;SDS011;1940;51.052;13.678;2023-12-20T12:53:19;1.93;;;1.60;;
3849;SDS011;1940;51.052;13.678;2023-12-20T12:55:45;9.53;;;1.93;;
3849;SDS011;1940;51.052;13.678;2023-12-20T12:58:11;4.10;;;2.17;;
3849;SDS011;1940;51.052;13.678;2023-12-20T13:00:36;5.97;;;1.90;;
3849;SDS011;1940;51.052;13.678;2023-12-20T13:03:02;3.13;;;1.60;;
3849;SDS011;1940;51.052;13.678;2023-12-20T13:05:28;4.70;;;1.63;;
3849;SDS011;1940;51.052;13.678;2023-12-20T13:07:54;3.93;;;1.60;;
3849;SDS011;1940;51.052;13.678;2023-12-20T13:10:20;5.70;;;1.80;;
3849;SDS011;1940;51.052;13.678;2023-12-20T13:12:45;2.37;;;1.60;;
3849;SDS011;1940;51.052;13.678;2023-12-20T13:15:11;4.03;;;2.57;;
3849;SDS011;1940;51.052;13.678;2023-12-20T13:17:36;4.20;;;1.80;;
3849;SDS011;1940;51.052;13.678;2023-12-20T13:20:03;4.03;;;1.70;;
3849;SDS011;1940;51.052;13.678;2023-12-20T13:22:28;3.67;;;1.87;;
3849;SDS011;1940;51.052;13.678;2023-12-20T13:24:54;5.80;;;1.90;;
3849;SDS011;1940;51.052;13.678;2023-12-20T13:27:19;3.60;;;1.47;;
3849;SDS011;1940;51.052;13.678;2023-12-20T13:29:45;1.77;;;1.47;;
3849;SDS011;1940;51.052;13.678;2023-12-20T13:32:10;2.90;;;1.67;;
3849;SDS011;1940;51.052;13.678;2023-12-20T13:34:36;4.33;;;1.50;;
3849;SDS011;1940;51.052;13.678;2023-12-20T13:37:01;4.13;;;1.57;;
3849;SDS011;1940;51.052;13.678;2023-12-20T13:39:27;2.00;;;1.43;;
3849;SDS011;1940;51.052;13.678;2023-12-20T13:41:53;3.07;;;1.50;;
3849;SDS011;1940;51.052;13.678;2023-12-20T13:44:18;2.60;;;1.60;;
3849;SDS011;1940;51.052;13.678;2023-12-20T13:46:44;3.67;;;1.70;;
3849;SDS011;1940;51.052;13.678;2023-12-20T13:49:11;1.80;;;1.40;;
3849;SDS011;1940;51.052;13.678;2023-12-20T13:51:37;3.33;;;1.70;;
3849;SDS011;1940;51.052;13.678;2023-12-20T13:54:03;3.53;;;1.60;;
3849;SDS011;1940;51.052;13.678;2023-12-20T13:56:29;4.00;;;1.90;;
3849;SDS011;1940;51.052;13.678;2023-12-20T13:58:54;4.30;;;1.53;;
3849;SDS011;1940;51.052;13.678;2023-12-20T14:01:19;5.17;;;2.00;;
3849;SDS011;1940;51.052;13.678;2023-12-20T14:03:45;3.80;;;1.67;;
3849;SDS011;1940;51.052;13.678;2023-12-20T14:06:11;6.90;;;1.93;;
3849;SDS011;1940;51.052;13.678;2023-12-20T14:08:36;7.23;;;1.50;;
3849;SDS011;1940;51.052;13.678;2023-12-20T14:11:02;3.33;;;1.40;;
3849;SDS011;1940;51.052;13.678;2023-12-20T14:13:27;1.70;;;1.43;;
3849;SDS011;1940;51.052;13.678;2023-12-20T14:15:53;1.77;;;1.40;;
3849;SDS011;1940;51.052;13.678;2023-12-20T14:18:19;1.83;;;1.20;;
3849;SDS011;1940;51.052;13.678;2023-12-20T14:20:45;1.53;;;1.43;;
3849;SDS011;1940;51.052;13.678;2023-12-20T14:23:12;1.73;;;1.30;;
3849;SDS011;1940;51.052;13.678;2023-12-20T14:25:39;2.60;;;1.80;;
3849;SDS011;1940;51.052;13.678;2023-12-20T14:28:06;2.70;;;1.57;;
3849;SDS011;1940;51.052;13.678;2023-12-20T14:30:31;5.13;;;1.50;;
3849;SDS011;1940;51.052;13.678;2023-12-20T14:32:57;5.43;;;2.00;;
3849;SDS011;1940;51.052;13.678;2023-12-20T14:35:23;3.37;;;1.53;;
3849;SDS011;1940;51.052;13.678;2023-12-20T14:37:48;4.27;;;1.87;;
3849;SDS011;1940;51.052;13.678;2023-12-20T14:40:15;5.60;;;1.80;;
3849;SDS011;1940;51.052;13.678;2023-12-20T14:42:41;4.20;;;1.40;;
3849;SDS011;1940;51.052;13.678;2023-12-20T14:45:07;3.70;;;1.60;;
3849;SDS011;1940;51.052;13.678;2023-12-20T14:47:33;1.73;;;1.33;;
3849;SDS011;1940;51.052;13.678;2023-12-20T14:50:00;2.53;;;1.60;;
3849;SDS011;1940;51.052;13.678;2023-12-20T14:52:27;3.57;;;1.37;;
3849;SDS011;1940;51.052;13.678;2023-12-20T14:54:53;2.60;;;1.60;;
3849;SDS011;1940;51.052;13.678;2023-12-20T14:57:18;5.20;;;1.43;;